createdAt,value
2023-12-12T00:00:52.341Z,24.15
2023-12-12T00:03:19.510Z,24.15
2023-12-12T00:05:46.240Z,24.17
2023-12-12T00:08:13.054Z,24.15
2023-12-12T00:10:39.834Z,24.14
2023-12-12T00:13:07.593Z,24.13
2023-12-12T00:15:34.328Z,24.15
2023-12-12T00:18:01.027Z,24.14
2023-12-12T00:20:27.695Z,24.14
2023-12-12T00:22:55.113Z,24.15
2023-12-12T00:25:21.898Z,24.16
2023-12-12T00:27:48.590Z,24.15
2023-12-12T00:30:15.354Z,24.14
2023-12-12T00:32:42.144Z,24.15
2023-12-12T00:35:09.013Z,24.14
2023-12-12T00:37:36.196Z,24.16
2023-12-12T00:40:03.137Z,24.14
2023-12-12T00:42:29.877Z,24.15
2023-12-12T00:44:56.529Z,24.14
2023-12-12T00:47:25.896Z,24.13
2023-12-12T00:49:55.647Z,24.13
2023-12-12T00:52:22.560Z,24.13
2023-12-12T00:54:49.588Z,24.15
2023-12-12T00:57:16.250Z,24.13
2023-12-12T00:59:44.488Z,24.14
2023-12-12T01:02:11.663Z,24.14
2023-12-12T01:04:38.380Z,24.14
2023-12-12T01:07:07.235Z,24.13
2023-12-12T01:09:33.959Z,24.13
2023-12-12T01:12:00.637Z,24.14
2023-12-12T01:14:27.531Z,24.14
2023-12-12T01:16:54.151Z,24.14
2023-12-12T01:19:20.927Z,24.14
2023-12-12T01:21:47.692Z,24.14
2023-12-12T01:24:14.303Z,24.13
2023-12-12T01:26:44.062Z,24.13
2023-12-12T01:29:12.322Z,24.13
2023-12-12T01:31:39.150Z,24.11
2023-12-12T01:34:06.365Z,24.14
2023-12-12T01:36:35.615Z,24.15
2023-12-12T01:39:02.315Z,24.13
2023-12-12T01:41:31.680Z,24.15
2023-12-12T01:43:58.400Z,24.15
2023-12-12T01:46:25.287Z,24.17
2023-12-12T01:48:52.116Z,24.17
2023-12-12T01:51:19.197Z,24.14
2023-12-12T01:53:49.535Z,24.16
2023-12-12T01:56:16.249Z,24.17
2023-12-12T01:58:45.026Z,24.17
2023-12-12T02:01:11.897Z,24.16
2023-12-12T02:03:39.339Z,24.17
2023-12-12T02:06:06.482Z,24.17
2023-12-12T02:08:33.260Z,24.16
2023-12-12T02:11:00.374Z,24.18
2023-12-12T02:13:27.072Z,24.18
2023-12-12T02:15:53.935Z,24.18
2023-12-12T02:18:20.789Z,24.16
2023-12-12T02:20:47.949Z,24.16
2023-12-12T02:23:14.692Z,24.14
2023-12-12T02:25:43.587Z,24.16
2023-12-12T02:28:10.658Z,24.13
2023-12-12T02:30:37.472Z,24.13
2023-12-12T02:33:05.826Z,24.14
2023-12-12T02:35:32.603Z,24.13
2023-12-12T02:37:59.333Z,24.14
2023-12-12T02:40:26.080Z,24.13
2023-12-12T02:42:54.190Z,24.14
2023-12-12T02:45:20.919Z,24.13
2023-12-12T02:47:47.794Z,24.13
2023-12-12T02:50:14.549Z,24.14
2023-12-12T02:52:44.111Z,24.13
2023-12-12T02:55:10.899Z,24.13
2023-12-12T02:57:37.628Z,24.11
2023-12-12T03:00:12.259Z,24.11
2023-12-12T03:02:39.003Z,24.12
2023-12-12T03:05:06.605Z,24.10
2023-12-12T03:07:33.799Z,24.11
2023-12-12T03:10:02.128Z,24.09
2023-12-12T03:12:28.836Z,24.08
2023-12-12T03:14:55.868Z,24.08
2023-12-12T03:17:22.512Z,24.10
2023-12-12T03:19:49.444Z,24.09
2023-12-12T03:22:16.264Z,24.11
2023-12-12T03:24:42.965Z,24.10
2023-12-12T03:27:09.935Z,24.12
2023-12-12T03:29:36.999Z,24.09
2023-12-12T03:32:03.913Z,24.11
2023-12-12T03:34:31.006Z,24.12
2023-12-12T03:36:57.864Z,24.10
2023-12-12T03:39:24.605Z,24.09
2023-12-12T03:41:51.822Z,24.12
2023-12-12T03:44:21.026Z,24.10
2023-12-12T03:46:47.666Z,24.10
2023-12-12T03:49:14.630Z,24.09
2023-12-12T03:51:41.473Z,24.09
2023-12-12T03:54:10.252Z,24.07
2023-12-12T03:56:37.117Z,24.08
2023-12-12T03:59:06.132Z,24.08
2023-12-12T04:01:33.022Z,24.08
2023-12-12T04:03:59.945Z,24.05
2023-12-12T04:06:26.689Z,24.05
2023-12-12T04:08:53.627Z,24.14
2023-12-12T04:11:20.320Z,24.27
2023-12-12T04:13:47.016Z,24.39
2023-12-12T04:16:16.119Z,24.52
2023-12-12T04:18:42.846Z,24.67
2023-12-12T04:21:12.639Z,24.82
2023-12-12T04:23:43.981Z,24.98
2023-12-12T04:26:10.947Z,25.15
2023-12-12T04:28:38.041Z,25.34
2023-12-12T04:31:04.873Z,25.48
2023-12-12T04:33:31.593Z,25.64
2023-12-12T04:35:58.412Z,25.68
2023-12-12T04:38:25.237Z,25.89
2023-12-12T04:40:51.919Z,26.00
2023-12-12T04:43:18.612Z,26.08
2023-12-12T04:45:45.292Z,26.26
2023-12-12T04:48:12.010Z,26.39
2023-12-12T04:50:38.984Z,26.58
2023-12-12T04:53:07.768Z,26.69
2023-12-12T04:55:37.575Z,26.71
2023-12-12T04:58:04.989Z,26.91
2023-12-12T05:00:32.070Z,26.90
2023-12-12T05:02:58.764Z,27.05
2023-12-12T05:05:25.687Z,27.20
2023-12-12T05:07:52.630Z,27.21
2023-12-12T05:10:19.418Z,27.28
2023-12-12T05:12:46.073Z,27.33
2023-12-12T05:15:13.804Z,27.41
2023-12-12T05:17:43.525Z,27.48
2023-12-12T05:20:12.887Z,27.52
2023-12-12T05:22:40.262Z,27.60
2023-12-12T05:25:07.579Z,27.62
2023-12-12T05:27:34.372Z,27.66
2023-12-12T05:30:03.928Z,27.76
2023-12-12T05:32:30.807Z,27.77
2023-12-12T05:34:57.561Z,27.84
2023-12-12T05:37:24.214Z,27.91
2023-12-12T05:39:51.198Z,27.94
2023-12-12T05:42:17.882Z,27.99
2023-12-12T05:44:44.563Z,28.04
2023-12-12T05:47:11.179Z,28.14
2023-12-12T05:49:38.160Z,28.19
2023-12-12T05:52:05.563Z,28.28
2023-12-12T05:54:32.386Z,28.43
2023-12-12T05:56:59.141Z,28.60
2023-12-12T05:59:26.037Z,28.72
2023-12-12T06:01:52.882Z,28.72
2023-12-12T06:04:19.655Z,28.95
2023-12-12T06:06:46.437Z,29.24
2023-12-12T06:09:14.309Z,29.01
2023-12-12T06:11:43.201Z,28.91
2023-12-12T06:14:10.252Z,28.91
2023-12-12T06:16:39.208Z,28.73
2023-12-12T06:19:06.950Z,28.71
2023-12-12T06:21:34.450Z,28.38
2023-12-12T06:24:03.379Z,28.09
2023-12-12T06:26:31.081Z,27.78
2023-12-12T06:28:57.754Z,27.47
2023-12-12T06:31:24.905Z,27.19
2023-12-12T06:33:52.848Z,26.81
2023-12-12T06:36:19.589Z,26.48
2023-12-12T06:38:46.265Z,26.16
2023-12-12T06:41:12.952Z,25.94
2023-12-12T06:43:39.836Z,25.85
2023-12-12T06:46:06.798Z,25.77
2023-12-12T06:48:33.630Z,25.73
2023-12-12T06:51:02.488Z,25.69
2023-12-12T06:53:29.916Z,25.70
2023-12-12T06:55:56.637Z,25.62
2023-12-12T06:58:26.240Z,25.51
2023-12-12T07:00:53.277Z,25.45
2023-12-12T07:03:20.140Z,25.38
2023-12-12T07:05:47.065Z,25.49
2023-12-12T07:08:14.001Z,25.42
2023-12-12T07:10:41.502Z,25.35
2023-12-12T07:15:52.514Z,25.53
2023-12-12T07:18:19.394Z,25.68
2023-12-12T07:20:46.163Z,25.81
2023-12-12T07:23:15.280Z,25.80
2023-12-12T07:25:46.656Z,25.86
2023-12-12T07:28:13.366Z,26.73
2023-12-12T07:30:40.508Z,25.95
2023-12-12T07:33:09.986Z,25.91
2023-12-12T07:35:36.941Z,26.62
2023-12-12T07:38:06.369Z,26.87
2023-12-12T07:40:33.530Z,26.88
2023-12-12T07:43:00.300Z,27.35
2023-12-12T07:45:27.101Z,27.26
2023-12-12T07:47:54.278Z,27.39
2023-12-12T07:50:22.041Z,27.15
2023-12-12T07:52:50.128Z,27.49
2023-12-12T07:55:17.067Z,27.37
2023-12-12T07:57:43.889Z,27.13
2023-12-12T08:00:13.814Z,27.27
2023-12-12T08:02:41.673Z,27.15
2023-12-12T08:05:11.049Z,27.37
2023-12-12T08:07:37.895Z,27.14
2023-12-12T08:10:06.591Z,27.80
2023-12-12T08:12:33.312Z,28.07
2023-12-12T08:15:00.043Z,28.28
2023-12-12T08:17:27.995Z,28.24
2023-12-12T08:19:55.085Z,28.47
2023-12-12T08:22:22.504Z,28.54
2023-12-12T08:24:52.001Z,28.96
2023-12-12T08:27:21.506Z,29.14
2023-12-12T08:29:51.373Z,29.42
2023-12-12T08:32:18.104Z,29.68
2023-12-12T08:34:44.881Z,29.96
2023-12-12T08:37:11.795Z,30.28
2023-12-12T08:39:40.024Z,30.23
2023-12-12T08:42:07.120Z,30.18
2023-12-12T08:44:33.872Z,30.70
2023-12-12T08:47:00.509Z,30.57
2023-12-12T08:49:28.090Z,30.61
2023-12-12T08:51:54.905Z,30.77
2023-12-12T08:54:23.913Z,31.13
2023-12-12T08:56:54.534Z,31.25
2023-12-12T08:59:23.898Z,31.29
2023-12-12T09:01:50.689Z,31.17
2023-12-12T09:04:18.081Z,31.11
2023-12-12T09:06:47.751Z,31.17
2023-12-12T09:09:16.856Z,31.36
2023-12-12T09:11:46.783Z,31.66
2023-12-12T09:14:13.500Z,31.42
2023-12-12T09:16:40.204Z,31.48
2023-12-12T09:19:07.760Z,31.73
2023-12-12T09:21:34.605Z,31.93
2023-12-12T09:24:01.408Z,32.05
2023-12-12T09:26:50.244Z,31.93
2023-12-12T09:29:17.615Z,32.26
2023-12-12T09:31:44.551Z,31.91
2023-12-12T09:34:11.303Z,31.98
2023-12-12T09:36:38.028Z,32.06
2023-12-12T09:39:08.302Z,32.20
2023-12-12T09:41:37.739Z,32.06
2023-12-12T09:44:07.912Z,31.93
2023-12-12T09:46:37.744Z,31.87
2023-12-12T09:49:07.562Z,32.03
2023-12-12T09:51:34.555Z,31.86
2023-12-12T09:54:02.887Z,32.04
2023-12-12T09:56:29.554Z,32.21
2023-12-12T09:58:56.211Z,32.02
2023-12-12T10:01:23.455Z,32.33
2023-12-12T10:03:50.156Z,32.47
2023-12-12T10:06:17.094Z,32.57
2023-12-12T10:08:43.784Z,33.01
2023-12-12T10:11:11.202Z,33.43
2023-12-12T10:13:51.925Z,33.54
2023-12-12T10:16:19.187Z,33.45
2023-12-12T10:18:49.150Z,33.35
2023-12-12T10:21:19.364Z,32.96
2023-12-12T10:23:47.121Z,32.49
2023-12-12T10:26:15.075Z,31.98
2023-12-12T10:28:43.158Z,31.51
2023-12-12T10:31:11.151Z,31.62
2023-12-12T10:33:39.517Z,31.06
2023-12-12T10:36:10.226Z,30.72
2023-12-12T10:38:37.622Z,30.55
2023-12-12T10:41:30.882Z,30.01
2023-12-12T10:43:57.798Z,29.95
2023-12-12T10:46:24.544Z,29.46
2023-12-12T10:48:54.147Z,29.16
2023-12-12T10:51:21.236Z,29.19
2023-12-12T10:53:49.882Z,29.05
2023-12-12T10:56:16.617Z,28.96
2023-12-12T10:58:44.092Z,28.59
2023-12-12T11:01:11.873Z,28.58
2023-12-12T11:03:42.125Z,28.56
2023-12-12T11:06:11.939Z,28.59
2023-12-12T11:08:39.106Z,28.29
2023-12-12T11:11:14.805Z,28.54
2023-12-12T11:13:43.079Z,28.51
2023-12-12T11:16:09.933Z,28.25
2023-12-12T11:18:43.897Z,28.34
2023-12-12T11:21:43.234Z,28.26
2023-12-12T11:24:09.894Z,28.05
2023-12-12T11:26:37.068Z,28.54
2023-12-12T11:29:08.982Z,28.35
2023-12-12T11:31:36.149Z,28.26
2023-12-12T11:34:12.457Z,28.53
2023-12-12T11:36:51.794Z,28.10
2023-12-12T11:39:38.688Z,28.11
2023-12-12T11:42:07.415Z,28.47
2023-12-12T11:44:44.228Z,27.85
2023-12-12T11:49:41.505Z,27.87
2023-12-12T11:52:08.650Z,27.78
2023-12-12T11:54:35.531Z,27.86
2023-12-12T11:57:02.437Z,27.89
2023-12-12T11:59:29.945Z,27.65
2023-12-12T12:01:56.766Z,27.90
2023-12-12T12:04:23.537Z,27.89
2023-12-12T12:06:51.075Z,28.01
2023-12-12T12:09:18.113Z,28.01
2023-12-12T12:11:53.135Z,28.72
2023-12-12T12:14:25.925Z,29.06
2023-12-12T12:16:57.531Z,28.91
2023-12-12T12:19:27.280Z,29.00
2023-12-12T12:21:54.097Z,29.28
2023-12-12T12:24:23.317Z,29.03
2023-12-12T12:26:50.122Z,29.09
2023-12-12T12:29:16.764Z,29.19
2023-12-12T12:31:43.713Z,29.35
2023-12-12T12:34:18.513Z,29.74
2023-12-12T12:36:47.747Z,29.97
2023-12-12T12:39:17.738Z,30.18
2023-12-12T12:41:48.450Z,30.47
2023-12-12T12:44:15.271Z,30.61
2023-12-12T12:46:52.034Z,30.74
2023-12-12T12:49:19.153Z,30.68
2023-12-12T12:51:49.398Z,30.75
2023-12-12T12:54:18.822Z,30.87
2023-12-12T12:56:48.075Z,30.96
2023-12-12T12:59:19.276Z,31.16
2023-12-12T13:01:46.843Z,31.21
2023-12-12T13:04:13.927Z,31.33
2023-12-12T13:06:43.065Z,31.35
2023-12-12T13:09:11.217Z,31.48
2023-12-12T13:11:39.595Z,31.52
2023-12-12T13:14:07.125Z,31.53
2023-12-12T13:16:34.081Z,31.59
2023-12-12T13:19:01.045Z,31.55
2023-12-12T13:21:27.959Z,31.71
2023-12-12T13:23:55.355Z,31.73
2023-12-12T13:26:25.044Z,31.80
2023-12-12T13:28:53.413Z,31.86
2023-12-12T13:31:22.178Z,31.97
2023-12-12T13:33:49.562Z,31.97
2023-12-12T13:36:16.610Z,32.01
2023-12-12T13:38:43.469Z,32.03
2023-12-12T13:41:10.472Z,32.04
2023-12-12T13:43:37.352Z,32.02
2023-12-12T13:46:04.880Z,32.09
2023-12-12T13:48:31.737Z,32.21
2023-12-12T13:50:58.635Z,32.43
2023-12-12T13:53:25.824Z,32.70
2023-12-12T13:55:53.940Z,33.02
2023-12-12T13:58:23.485Z,32.64
2023-12-12T14:00:50.359Z,32.44
2023-12-12T14:03:18.840Z,32.40
2023-12-12T14:05:45.800Z,32.41
2023-12-12T14:08:12.949Z,32.46
2023-12-12T14:10:39.825Z,32.49
2023-12-12T14:13:06.479Z,32.50
2023-12-12T14:15:33.159Z,32.45
2023-12-12T14:18:00.658Z,32.22
2023-12-12T14:20:27.699Z,32.04
2023-12-12T14:23:01.578Z,31.88
2023-12-12T14:25:34.561Z,31.46
2023-12-12T14:28:01.316Z,31.03
2023-12-12T14:30:28.527Z,30.58
2023-12-12T14:32:57.043Z,30.11
2023-12-12T14:35:23.929Z,29.64
2023-12-12T14:37:50.634Z,29.21
2023-12-12T14:40:17.302Z,28.83
2023-12-12T14:42:44.106Z,28.57
2023-12-12T14:45:11.952Z,28.35
2023-12-12T14:47:39.875Z,28.21
2023-12-12T14:50:08.733Z,28.06
2023-12-12T14:52:35.927Z,28.00
2023-12-12T14:55:02.903Z,27.96
2023-12-12T14:57:29.614Z,28.14
2023-12-12T14:59:56.610Z,27.84
2023-12-12T15:02:23.548Z,27.66
2023-12-12T15:04:50.739Z,27.50
2023-12-12T15:07:17.463Z,27.54
2023-12-12T15:09:44.097Z,27.56
2023-12-12T15:12:10.790Z,27.48
2023-12-12T15:14:37.610Z,27.42
2023-12-12T15:17:04.458Z,27.43
2023-12-12T15:19:31.313Z,27.42
2023-12-12T15:21:57.986Z,27.30
2023-12-12T15:24:24.709Z,27.25
2023-12-12T15:26:51.431Z,27.15
2023-12-12T15:29:18.129Z,27.03
2023-12-12T15:31:47.772Z,26.88
2023-12-12T15:34:14.604Z,26.81
2023-12-12T15:36:41.387Z,26.76
2023-12-12T15:39:08.057Z,26.86
2023-12-12T15:41:37.245Z,26.76
2023-12-12T15:44:04.911Z,26.75
2023-12-12T15:46:31.856Z,26.80
2023-12-12T15:48:59.212Z,26.81
2023-12-12T15:51:28.283Z,26.79
2023-12-12T15:53:56.332Z,26.80
2023-12-12T15:56:25.660Z,26.76
2023-12-12T15:58:55.194Z,26.72
2023-12-12T16:01:22.288Z,26.70
2023-12-12T16:03:52.100Z,26.71
2023-12-12T16:06:19.681Z,26.76
2023-12-12T16:08:47.115Z,26.79
2023-12-12T16:11:13.807Z,26.82
2023-12-12T16:13:40.609Z,27.13
2023-12-12T16:16:07.857Z,27.15
2023-12-12T16:18:35.596Z,27.34
2023-12-12T16:21:02.256Z,27.60
2023-12-12T16:23:28.875Z,27.91
2023-12-12T16:25:55.554Z,28.20
2023-12-12T16:28:22.301Z,28.33
2023-12-12T16:30:49.054Z,28.51
2023-12-12T16:33:15.784Z,28.58
2023-12-12T16:35:42.825Z,28.81
2023-12-12T16:38:16.764Z,28.89
2023-12-12T16:40:43.556Z,29.03
2023-12-12T16:43:10.324Z,29.11
2023-12-12T16:45:37.967Z,29.27
2023-12-12T16:48:05.331Z,29.38
2023-12-12T16:50:32.807Z,29.45
2023-12-12T16:52:59.866Z,29.53
2023-12-12T16:55:26.684Z,29.62
2023-12-12T16:57:53.784Z,29.72
2023-12-12T17:00:20.642Z,29.78
2023-12-12T17:02:49.450Z,29.86
2023-12-12T17:05:16.245Z,29.95
2023-12-12T17:07:43.378Z,30.01
2023-12-12T17:10:10.748Z,30.06
2023-12-12T17:12:37.984Z,30.15
2023-12-12T17:15:07.853Z,30.19
2023-12-12T17:17:37.248Z,30.30
2023-12-12T17:20:04.547Z,30.38
2023-12-12T17:22:31.454Z,30.42
2023-12-12T17:24:58.362Z,30.51
2023-12-12T17:27:27.776Z,30.56
2023-12-12T17:29:57.318Z,30.65
2023-12-12T17:32:24.085Z,30.71
2023-12-12T17:34:51.178Z,30.78
2023-12-12T17:37:17.869Z,30.85
2023-12-12T17:39:44.590Z,30.93
2023-12-12T17:42:11.430Z,30.88
2023-12-12T17:44:38.161Z,30.93
2023-12-12T17:47:05.180Z,31.06
2023-12-12T17:49:32.006Z,31.05
2023-12-12T17:52:01.222Z,31.09
2023-12-12T17:54:27.907Z,31.17
2023-12-12T17:56:54.619Z,31.19
2023-12-12T17:59:21.406Z,31.22
2023-12-12T18:01:48.217Z,31.27
2023-12-12T18:04:15.438Z,31.32
2023-12-12T18:06:42.368Z,31.34
2023-12-12T18:09:09.146Z,31.40
2023-12-12T18:11:36.046Z,31.52
2023-12-12T18:14:04.081Z,31.63
2023-12-12T18:16:30.909Z,31.40
2023-12-12T18:18:57.794Z,31.18
2023-12-12T18:21:24.578Z,30.93
2023-12-12T18:23:51.250Z,30.69
2023-12-12T18:26:18.101Z,30.41
2023-12-12T18:28:48.470Z,29.98
2023-12-12T18:31:16.033Z,29.54
2023-12-12T18:33:43.483Z,29.19
2023-12-12T18:36:10.601Z,28.77
2023-12-12T18:38:37.578Z,28.40
2023-12-12T18:41:07.229Z,28.03
2023-12-12T18:43:34.209Z,27.77
2023-12-12T18:46:00.855Z,27.57
2023-12-12T18:48:27.705Z,27.41
2023-12-12T18:50:54.392Z,27.30
2023-12-12T18:53:21.092Z,27.21
2023-12-12T18:55:47.784Z,27.14
2023-12-12T18:58:14.757Z,27.05
2023-12-12T19:00:42.550Z,26.89
2023-12-12T19:03:09.242Z,26.79
2023-12-12T19:05:36.233Z,26.72
2023-12-12T19:08:03.339Z,26.65
2023-12-12T19:10:31.376Z,26.66
2023-12-12T19:12:59.655Z,26.73
2023-12-12T19:15:26.415Z,26.81
2023-12-12T19:17:54.157Z,26.96
2023-12-12T19:20:21.953Z,27.09
2023-12-12T19:22:48.935Z,27.25
2023-12-12T19:25:15.763Z,27.40
2023-12-12T19:27:42.507Z,27.54
2023-12-12T19:30:10.602Z,27.65
2023-12-12T19:32:39.028Z,27.73
2023-12-12T19:35:07.943Z,27.81
2023-12-12T19:37:35.498Z,27.87
2023-12-12T19:40:06.688Z,27.87
2023-12-12T19:42:34.780Z,27.87
2023-12-12T19:45:04.955Z,27.85
2023-12-12T19:47:31.981Z,27.84
2023-12-12T19:50:02.309Z,27.81
2023-12-12T19:52:32.476Z,27.80
2023-12-12T19:54:59.419Z,27.75
2023-12-12T19:57:26.081Z,27.72
2023-12-12T19:59:52.721Z,27.69
2023-12-12T20:02:19.444Z,27.67
2023-12-12T20:04:46.191Z,27.63
2023-12-12T20:07:14.710Z,27.62
2023-12-12T20:09:42.884Z,27.65
2023-12-12T20:12:10.452Z,27.71
2023-12-12T20:14:38.222Z,27.72
2023-12-12T20:17:08.087Z,27.74
2023-12-12T20:19:35.146Z,27.79
2023-12-12T20:22:02.003Z,27.83
2023-12-12T20:24:29.439Z,27.82
2023-12-12T20:26:56.219Z,27.83
2023-12-12T20:29:22.989Z,27.84
2023-12-12T20:31:49.888Z,27.85
2023-12-12T20:34:16.770Z,27.90
2023-12-12T20:36:43.440Z,27.90
2023-12-12T20:39:12.049Z,27.89
2023-12-12T20:41:38.771Z,27.89
2023-12-12T20:44:06.395Z,27.88
2023-12-12T20:46:34.824Z,27.87
2023-12-12T20:49:01.526Z,27.86
2023-12-12T20:51:31.079Z,27.86
2023-12-12T20:53:57.936Z,27.86
2023-12-12T20:56:24.696Z,27.86
2023-12-12T20:58:51.385Z,27.85
2023-12-12T21:01:18.167Z,27.86
2023-12-12T21:03:44.917Z,27.87
2023-12-12T21:06:11.650Z,27.86
2023-12-12T21:08:38.343Z,27.88
2023-12-12T21:11:11.536Z,27.87
2023-12-12T21:13:38.186Z,27.88
2023-12-12T21:16:17.843Z,27.91
2023-12-12T21:18:44.750Z,27.92
2023-12-12T21:21:11.415Z,27.93
2023-12-12T21:23:38.132Z,27.91
2023-12-12T21:26:05.033Z,27.92
2023-12-12T21:28:31.990Z,27.97
2023-12-12T21:30:59.007Z,27.93
2023-12-12T21:33:25.841Z,27.95
2023-12-12T21:35:52.697Z,27.95
2023-12-12T21:38:19.674Z,27.94
2023-12-12T21:40:46.827Z,27.95
2023-12-12T21:43:13.610Z,27.94
2023-12-12T21:45:40.303Z,27.99
2023-12-12T21:48:07.226Z,27.98
2023-12-12T21:50:34.256Z,28.00
2023-12-12T21:53:00.971Z,27.99
2023-12-12T21:55:27.666Z,28.00
2023-12-12T21:57:54.555Z,28.01
2023-12-12T22:00:26.017Z,28.02
2023-12-12T22:02:52.800Z,28.04
2023-12-12T22:05:19.629Z,28.00
2023-12-12T22:07:46.412Z,28.01
2023-12-12T22:10:13.241Z,28.05
2023-12-12T22:12:41.020Z,28.02
2023-12-12T22:15:08.736Z,28.06
2023-12-12T22:17:35.847Z,28.05
2023-12-12T22:20:06.995Z,28.04
2023-12-12T22:22:34.228Z,28.06
2023-12-12T22:25:01.017Z,28.04
2023-12-12T22:27:27.690Z,28.05
2023-12-12T22:29:54.563Z,28.04
2023-12-12T22:32:21.210Z,28.04
2023-12-12T22:34:48.157Z,28.06
2023-12-12T22:37:14.933Z,28.05
2023-12-12T22:39:41.717Z,28.05
2023-12-12T22:42:08.423Z,28.05
2023-12-12T22:44:35.442Z,28.07
2023-12-12T22:47:02.418Z,28.05
2023-12-12T22:49:29.283Z,28.07
2023-12-12T22:51:58.683Z,28.06
2023-12-12T22:54:25.496Z,28.06
2023-12-12T22:56:53.772Z,28.04
2023-12-12T22:59:20.503Z,28.04
2023-12-12T23:01:47.226Z,28.07
2023-12-12T23:04:14.055Z,28.04
2023-12-12T23:06:40.911Z,28.04
2023-12-12T23:09:12.332Z,28.04
2023-12-12T23:11:39.030Z,28.04
2023-12-12T23:14:08.874Z,28.05
2023-12-12T23:16:38.052Z,28.05
2023-12-12T23:19:04.790Z,28.04
2023-12-12T23:21:32.376Z,28.04
2023-12-12T23:23:59.216Z,28.01
2023-12-12T23:26:26.813Z,28.02
2023-12-12T23:28:53.697Z,28.04
2023-12-12T23:31:20.520Z,28.00
2023-12-12T23:33:47.420Z,28.01
2023-12-12T23:36:14.237Z,28.01
2023-12-12T23:38:40.931Z,28.00
2023-12-12T23:41:08.057Z,28.00
2023-12-12T23:43:35.881Z,27.99
2023-12-12T23:46:02.591Z,27.99
2023-12-12T23:48:30.357Z,27.98
2023-12-12T23:50:57.247Z,28.00
2023-12-12T23:53:26.604Z,27.98
2023-12-12T23:55:55.542Z,27.97
2023-12-12T23:58:25.469Z,27.96
